createdAt,value
2022-10-18T00:01:10.346Z,47.23
2022-10-18T00:03:39.349Z,43.53
2022-10-18T00:06:09.095Z,43.37
2022-10-18T00:08:38.012Z,35.27
2022-10-18T00:11:07.101Z,36.83
2022-10-18T00:13:35.283Z,34.87
2022-10-18T00:16:11.045Z,36.63
2022-10-18T00:18:44.526Z,34.83
2022-10-18T00:21:16.359Z,33.30
2022-10-18T00:23:46.910Z,43.80
2022-10-18T00:26:20.108Z,33.50
2022-10-18T00:28:54.190Z,35.83
2022-10-18T00:31:26.818Z,41.70
2022-10-18T00:33:57.270Z,32.40
2022-10-18T00:36:27.032Z,31.00
2022-10-18T00:38:55.863Z,29.60
2022-10-18T00:41:33.448Z,30.17
2022-10-18T00:44:03.500Z,28.37
2022-10-18T00:46:35.245Z,27.83
2022-10-18T00:49:07.601Z,29.77
2022-10-18T00:51:43.634Z,30.80
2022-10-18T00:54:12.241Z,29.70
2022-10-18T00:56:40.628Z,21.93
2022-10-18T00:59:09.234Z,24.20
2022-10-18T01:01:38.910Z,26.53
2022-10-18T01:04:07.603Z,26.17
2022-10-18T01:06:43.219Z,23.50
2022-10-18T01:09:18.120Z,26.30
2022-10-18T01:12:08.703Z,24.80
2022-10-18T01:14:46.918Z,24.93
2022-10-18T01:17:20.700Z,23.27
2022-10-18T01:20:13.228Z,24.87
2022-10-18T01:22:46.003Z,25.40
2022-10-18T01:25:29.361Z,27.13
2022-10-18T01:28:05.672Z,21.80
2022-10-18T01:30:41.692Z,24.00
2022-10-18T01:33:22.488Z,20.00
2022-10-18T01:35:54.844Z,23.10
2022-10-18T01:38:25.757Z,22.97
2022-10-18T01:40:56.057Z,23.77
2022-10-18T01:43:25.469Z,21.27
2022-10-18T01:45:57.608Z,21.27
2022-10-18T01:48:25.896Z,22.90
2022-10-18T01:50:54.118Z,23.23
2022-10-18T01:53:24.169Z,20.70
2022-10-18T01:56:01.394Z,24.50
2022-10-18T01:58:37.011Z,22.40
2022-10-18T02:01:12.469Z,22.03
2022-10-18T02:03:46.249Z,23.07
2022-10-18T02:06:21.138Z,24.07
2022-10-18T02:08:56.041Z,24.37
2022-10-18T02:11:24.678Z,23.80
2022-10-18T02:13:56.489Z,23.63
2022-10-18T02:16:30.681Z,24.60
2022-10-18T02:19:02.325Z,22.40
2022-10-18T02:21:31.765Z,21.17
2022-10-18T02:24:03.053Z,21.20
2022-10-18T02:26:31.449Z,23.00
2022-10-18T02:28:59.640Z,22.07
2022-10-18T02:31:34.364Z,23.07
2022-10-18T02:34:09.855Z,19.90
2022-10-18T02:36:43.866Z,21.47
2022-10-18T02:39:15.014Z,22.03
2022-10-18T02:41:44.378Z,23.70
2022-10-18T02:44:12.530Z,24.10
2022-10-18T02:46:42.648Z,20.97
2022-10-18T02:49:10.770Z,26.10
2022-10-18T02:51:38.935Z,20.03
2022-10-18T02:54:08.351Z,20.70
2022-10-18T02:56:36.739Z,20.50
2022-10-18T02:59:07.306Z,21.63
2022-10-18T03:01:36.213Z,25.03
2022-10-18T03:04:06.175Z,21.23
2022-10-18T03:06:34.957Z,24.13
2022-10-18T03:09:03.254Z,20.80
2022-10-18T03:11:31.594Z,20.20
2022-10-18T03:13:59.774Z,21.73
2022-10-18T03:16:28.524Z,22.07
2022-10-18T03:18:56.675Z,22.57
2022-10-18T03:21:26.447Z,21.20
2022-10-18T03:23:54.805Z,20.80
2022-10-18T03:26:22.952Z,20.40
2022-10-18T03:28:51.164Z,22.80
2022-10-18T03:31:19.531Z,23.77
2022-10-18T03:33:47.689Z,26.20
2022-10-18T03:36:16.107Z,22.87
2022-10-18T03:38:45.575Z,20.93
2022-10-18T03:41:13.701Z,23.43
2022-10-18T03:43:41.892Z,24.20
2022-10-18T03:46:10.098Z,24.30
2022-10-18T03:48:38.237Z,23.77
2022-10-18T03:51:06.609Z,23.30
2022-10-18T03:53:34.842Z,23.50
2022-10-18T03:56:04.466Z,25.73
2022-10-18T04:01:05.735Z,21.80
2022-10-18T04:03:33.987Z,19.63
2022-10-18T04:06:03.589Z,29.37
2022-10-18T04:08:31.859Z,27.90
2022-10-18T04:10:59.985Z,28.63
2022-10-18T04:13:30.167Z,28.47
2022-10-18T04:15:58.280Z,22.20
2022-10-18T04:18:26.473Z,25.27
2022-10-18T04:20:54.640Z,25.33
2022-10-18T04:23:22.778Z,21.83
2022-10-18T04:25:51.275Z,26.90
2022-10-18T04:28:19.613Z,23.77
2022-10-18T04:30:52.033Z,33.00
2022-10-18T04:33:20.658Z,27.43
2022-10-18T04:35:51.990Z,27.60
2022-10-18T04:38:20.314Z,27.13
2022-10-18T04:40:48.495Z,25.87
2022-10-18T04:43:16.971Z,28.87
2022-10-18T04:45:45.955Z,30.70
2022-10-18T04:48:15.665Z,31.93
2022-10-18T04:50:43.969Z,28.43
2022-10-18T04:53:15.990Z,34.70
2022-10-18T04:55:45.179Z,30.30
2022-10-18T04:58:13.618Z,29.33
2022-10-18T05:00:42.236Z,26.67
2022-10-18T05:03:10.906Z,28.73
2022-10-18T05:05:57.156Z,23.37
2022-10-18T05:08:29.029Z,26.00
2022-10-18T05:10:57.309Z,23.60
2022-10-18T05:13:25.604Z,27.30
2022-10-18T05:15:53.754Z,23.03
2022-10-18T05:18:21.947Z,23.23
2022-10-18T05:20:51.412Z,23.13
2022-10-18T05:23:19.541Z,23.73
2022-10-18T05:25:47.973Z,22.70
2022-10-18T05:28:38.026Z,26.17
2022-10-18T05:31:06.975Z,26.20
2022-10-18T05:33:35.389Z,42.80
2022-10-18T05:36:05.340Z,29.87
2022-10-18T05:38:33.574Z,26.93
2022-10-18T05:41:05.407Z,32.17
2022-10-18T05:43:33.528Z,36.67
2022-10-18T05:46:01.871Z,46.90
2022-10-18T05:48:29.987Z,29.47
2022-10-18T05:50:59.383Z,35.90
2022-10-18T05:53:38.115Z,24.37
2022-10-18T05:56:07.659Z,26.30
2022-10-18T05:58:36.009Z,25.27
2022-10-18T06:01:06.380Z,28.63
2022-10-18T06:03:34.907Z,35.03
2022-10-18T06:06:05.225Z,22.70
2022-10-18T06:08:35.788Z,27.90
2022-10-18T06:11:07.822Z,21.23
2022-10-18T06:13:36.005Z,20.30
2022-10-18T06:16:04.161Z,21.17
2022-10-18T06:18:32.280Z,28.20
2022-10-18T06:21:00.727Z,33.37
2022-10-18T06:23:29.539Z,26.90
2022-10-18T06:26:01.227Z,35.50
2022-10-18T06:28:30.545Z,24.27
2022-10-18T06:30:59.142Z,30.77
2022-10-18T06:33:27.343Z,30.67
2022-10-18T06:35:57.044Z,38.90
2022-10-18T06:38:25.850Z,35.83
2022-10-18T06:40:54.007Z,27.07
2022-10-18T06:43:24.055Z,25.10
2022-10-18T06:45:52.897Z,27.43
2022-10-18T06:48:21.857Z,28.70
2022-10-18T06:50:54.837Z,22.20
2022-10-18T06:53:22.976Z,20.67
2022-10-18T06:55:51.277Z,24.30
2022-10-18T06:58:19.690Z,19.43
2022-10-18T07:00:49.240Z,19.33
2022-10-18T07:03:17.363Z,21.57
2022-10-18T07:05:45.482Z,21.60
2022-10-18T07:08:13.621Z,34.13
2022-10-18T07:10:41.835Z,25.67
2022-10-18T07:16:04.821Z,32.47
2022-10-18T07:18:34.429Z,30.63
2022-10-18T07:21:03.632Z,28.20
2022-10-18T07:23:33.545Z,41.07
2022-10-18T07:26:03.455Z,35.47
2022-10-18T07:28:32.023Z,29.40
2022-10-18T07:31:07.015Z,28.73
2022-10-18T07:33:35.843Z,30.23
2022-10-18T07:36:04.670Z,27.50
2022-10-18T07:38:33.093Z,29.33
2022-10-18T07:41:02.613Z,32.07
2022-10-18T07:43:31.069Z,24.33
2022-10-18T07:46:00.492Z,28.77
2022-10-18T07:48:30.630Z,22.40
2022-10-18T07:51:00.649Z,24.83
2022-10-18T07:53:29.084Z,23.47
2022-10-18T07:56:02.430Z,25.47
2022-10-18T07:58:33.446Z,23.00
2022-10-18T08:01:03.264Z,33.13
2022-10-18T08:03:33.139Z,41.60
2022-10-18T08:06:01.560Z,37.20
2022-10-18T08:08:30.601Z,34.77
2022-10-18T08:11:03.699Z,28.50
2022-10-18T08:13:31.947Z,25.43
2022-10-18T08:16:01.576Z,26.83
2022-10-18T08:18:30.514Z,27.47
2022-10-18T08:21:01.752Z,24.57
2022-10-18T08:23:30.233Z,26.40
2022-10-18T08:26:01.656Z,25.57
2022-10-18T08:28:30.049Z,23.00
2022-10-18T08:30:58.487Z,23.40
2022-10-18T08:33:26.614Z,23.30
2022-10-18T08:35:58.201Z,20.43
2022-10-18T08:38:31.115Z,20.13
2022-10-18T08:41:01.330Z,20.63
2022-10-18T08:46:12.421Z,15.03
2022-10-18T08:48:44.893Z,16.20
2022-10-18T08:51:23.271Z,16.30
2022-10-18T08:54:00.445Z,15.53
2022-10-18T08:56:28.653Z,14.10
2022-10-18T08:58:56.855Z,17.47
2022-10-18T09:01:32.662Z,16.13
2022-10-18T09:04:30.084Z,14.47
2022-10-18T09:07:16.524Z,13.90
2022-10-18T09:09:51.916Z,13.47
2022-10-18T09:12:43.696Z,15.43
2022-10-18T09:15:20.751Z,14.27
2022-10-18T09:18:03.520Z,18.43
2022-10-18T09:20:38.921Z,16.30
2022-10-18T09:23:19.422Z,16.90
2022-10-18T09:25:51.013Z,18.80
2022-10-18T09:28:33.203Z,15.63
2022-10-18T09:31:06.472Z,18.70
2022-10-18T09:33:47.548Z,16.73
2022-10-18T09:36:19.693Z,18.20
2022-10-18T09:38:51.310Z,17.57
2022-10-18T09:41:25.700Z,15.20
2022-10-18T09:43:59.437Z,19.10
2022-10-18T09:46:31.871Z,14.97
2022-10-18T09:49:04.641Z,15.17
2022-10-18T09:51:37.237Z,17.73
2022-10-18T09:54:18.778Z,15.50
2022-10-18T09:56:51.924Z,15.57
2022-10-18T09:59:39.322Z,18.27
2022-10-18T10:02:08.271Z,12.20
2022-10-18T10:04:36.415Z,11.90
2022-10-18T10:07:09.189Z,10.83
2022-10-18T10:09:42.408Z,12.80
2022-10-18T10:12:27.065Z,11.40
2022-10-18T10:14:55.235Z,11.70
2022-10-18T10:17:26.047Z,10.23
2022-10-18T10:19:59.932Z,11.53
2022-10-18T10:22:34.279Z,10.57
2022-10-18T10:25:03.075Z,10.47
2022-10-18T10:27:35.444Z,13.23
2022-10-18T10:30:07.351Z,11.13
2022-10-18T10:32:47.649Z,10.87
2022-10-18T10:35:52.630Z,15.10
2022-10-18T10:38:27.129Z,10.60
2022-10-18T10:40:56.276Z,8.23
2022-10-18T10:43:44.795Z,7.00
2022-10-18T10:46:15.345Z,8.20
2022-10-18T10:48:50.114Z,6.97
2022-10-18T10:51:29.292Z,6.80
2022-10-18T10:54:00.981Z,8.20
2022-10-18T10:56:31.461Z,9.33
2022-10-18T10:59:08.753Z,9.57
2022-10-18T11:01:37.387Z,11.47
2022-10-18T11:04:26.668Z,9.77
2022-10-18T11:07:01.797Z,10.97
2022-10-18T11:09:42.799Z,10.87
2022-10-18T11:12:22.995Z,11.27
2022-10-18T11:14:58.998Z,10.63
2022-10-18T11:17:33.599Z,13.70
2022-10-18T11:20:15.516Z,11.20
2022-10-18T11:22:48.073Z,17.70
2022-10-18T11:25:17.990Z,9.47
2022-10-18T11:27:54.216Z,12.37
2022-10-18T11:30:40.149Z,12.20
2022-10-18T11:33:29.505Z,13.70
2022-10-18T11:36:11.421Z,12.13
2022-10-18T11:38:47.665Z,9.17
2022-10-18T11:41:31.248Z,9.00
2022-10-18T11:44:03.396Z,10.87
2022-10-18T11:46:46.190Z,7.27
2022-10-18T11:49:30.811Z,7.83
2022-10-18T11:52:09.490Z,6.07
2022-10-18T11:54:53.022Z,8.03
2022-10-18T11:57:36.956Z,5.23
2022-10-18T12:00:17.870Z,7.47
2022-10-18T12:03:20.841Z,6.20
2022-10-18T12:05:52.008Z,7.30
2022-10-18T12:08:24.439Z,5.97
2022-10-18T12:11:05.414Z,9.53
2022-10-18T12:13:38.261Z,7.07
2022-10-18T12:16:09.049Z,6.03
2022-10-18T12:18:54.859Z,6.30
2022-10-18T12:21:26.041Z,8.43
2022-10-18T12:23:59.387Z,6.57
2022-10-18T12:26:29.359Z,9.57
2022-10-18T12:29:21.475Z,10.30
2022-10-18T12:31:54.102Z,6.90
2022-10-18T12:34:36.240Z,6.90
2022-10-18T12:37:24.739Z,6.37
2022-10-18T12:40:09.860Z,7.50
2022-10-18T12:42:43.782Z,8.60
2022-10-18T12:45:26.082Z,8.30
2022-10-18T12:47:55.096Z,9.80
2022-10-18T12:50:32.603Z,16.37
2022-10-18T12:53:17.936Z,8.17
2022-10-18T12:55:48.192Z,9.53
2022-10-18T12:58:28.679Z,8.10
2022-10-18T13:01:01.160Z,9.60
2022-10-18T13:03:39.317Z,8.30
2022-10-18T13:06:08.988Z,7.97
2022-10-18T13:08:41.952Z,6.47
2022-10-18T13:11:35.969Z,7.13
2022-10-18T13:14:38.752Z,9.13
2022-10-18T13:17:24.697Z,7.30
2022-10-18T13:20:24.698Z,6.33
2022-10-18T13:23:04.114Z,7.20
2022-10-18T13:25:42.030Z,6.87
2022-10-18T13:28:23.592Z,6.73
2022-10-18T13:30:57.736Z,6.90
2022-10-18T13:33:36.554Z,6.57
2022-10-18T13:36:07.089Z,7.33
2022-10-18T13:38:50.172Z,5.07
2022-10-18T13:41:20.856Z,5.03
2022-10-18T13:44:09.847Z,6.90
2022-10-18T13:47:20.545Z,6.70
2022-10-18T13:49:59.697Z,6.33
2022-10-18T13:52:40.496Z,6.47
2022-10-18T13:55:32.945Z,6.47
2022-10-18T13:58:12.173Z,8.40
2022-10-18T14:00:52.548Z,6.10
2022-10-18T14:06:27.808Z,10.67
2022-10-18T14:09:09.419Z,7.60
2022-10-18T14:11:51.877Z,7.03
2022-10-18T14:14:29.932Z,6.93
2022-10-18T14:17:04.721Z,7.93
2022-10-18T14:19:38.263Z,8.10
2022-10-18T14:22:14.797Z,10.70
2022-10-18T14:24:46.509Z,6.63
2022-10-18T14:27:19.986Z,9.23
2022-10-18T14:29:49.835Z,8.20
2022-10-18T14:32:29.292Z,10.80
2022-10-18T14:35:27.168Z,9.43
2022-10-18T14:37:48.790Z,9.47
2022-10-18T14:40:33.240Z,8.20
2022-10-18T14:43:12.172Z,8.20
2022-10-18T14:45:40.886Z,8.47
2022-10-18T14:48:15.952Z,10.13
2022-10-18T14:50:47.114Z,9.40
2022-10-18T14:53:18.677Z,9.83
2022-10-18T14:55:55.960Z,9.87
2022-10-18T14:58:25.747Z,9.53
2022-10-18T15:00:54.944Z,11.57
2022-10-18T15:03:24.786Z,10.90
2022-10-18T15:05:55.171Z,10.90
2022-10-18T15:08:29.126Z,12.20
2022-10-18T15:10:59.528Z,11.37
2022-10-18T15:13:31.138Z,12.60
2022-10-18T15:16:00.212Z,13.97
2022-10-18T15:21:22.205Z,16.37
2022-10-18T15:23:51.234Z,10.03
2022-10-18T15:26:27.554Z,14.40
2022-10-18T15:29:01.679Z,13.70
2022-10-18T15:31:36.374Z,11.90
2022-10-18T15:34:10.549Z,12.50
2022-10-18T15:36:39.293Z,13.10
2022-10-18T15:39:09.804Z,13.07
2022-10-18T15:41:40.856Z,11.77
2022-10-18T15:44:21.406Z,19.80
2022-10-18T15:46:52.885Z,13.03
2022-10-18T15:49:50.885Z,12.33
2022-10-18T15:52:38.128Z,13.70
2022-10-18T15:55:44.617Z,22.83
2022-10-18T15:58:16.587Z,12.97
2022-10-18T16:00:47.337Z,13.70
2022-10-18T16:03:17.054Z,13.40
2022-10-18T16:05:45.405Z,13.40
2022-10-18T16:08:21.652Z,16.90
2022-10-18T16:10:49.976Z,14.97
2022-10-18T16:13:18.228Z,17.30
2022-10-18T16:15:48.091Z,16.57
2022-10-18T16:18:18.727Z,29.63
2022-10-18T16:20:48.108Z,15.20
2022-10-18T16:23:19.269Z,14.90
2022-10-18T16:25:48.088Z,15.83
2022-10-18T16:28:19.259Z,17.80
2022-10-18T16:30:55.078Z,19.60
2022-10-18T16:33:24.190Z,17.10
2022-10-18T16:35:53.133Z,12.17
2022-10-18T16:38:34.843Z,15.40
2022-10-18T16:41:05.209Z,13.30
2022-10-18T16:43:34.654Z,14.60
2022-10-18T16:46:05.913Z,11.10
2022-10-18T16:48:34.596Z,12.77
2022-10-18T16:51:03.046Z,20.33
2022-10-18T16:53:31.920Z,16.30
2022-10-18T16:56:01.762Z,20.33
2022-10-18T16:58:31.378Z,17.57
2022-10-18T17:01:01.897Z,18.43
2022-10-18T17:03:33.681Z,15.27
2022-10-18T17:06:01.853Z,16.70
2022-10-18T17:08:30.405Z,17.53
2022-10-18T17:11:01.622Z,13.50
2022-10-18T17:13:29.766Z,18.63
2022-10-18T17:15:59.282Z,17.00
2022-10-18T17:18:27.588Z,16.00
2022-10-18T17:20:59.290Z,14.80
2022-10-18T17:23:27.585Z,14.10
2022-10-18T17:26:06.769Z,12.37
2022-10-18T17:28:43.634Z,15.80
2022-10-18T17:31:11.948Z,10.33
2022-10-18T17:33:40.385Z,13.93
2022-10-18T17:36:10.217Z,11.97
2022-10-18T17:38:38.450Z,13.13
2022-10-18T17:41:08.440Z,20.43
2022-10-18T17:43:37.682Z,30.23
2022-10-18T17:46:06.238Z,15.10
2022-10-18T17:48:34.767Z,15.10
2022-10-18T17:51:07.636Z,19.63
2022-10-18T17:53:37.331Z,17.30
2022-10-18T17:56:07.347Z,23.10
2022-10-18T17:58:35.836Z,19.73
2022-10-18T18:01:11.892Z,14.10
2022-10-18T18:03:40.111Z,18.03
2022-10-18T18:06:19.648Z,18.33
2022-10-18T18:08:50.451Z,13.93
2022-10-18T18:11:19.277Z,14.50
2022-10-18T18:13:47.460Z,13.80
2022-10-18T18:16:17.697Z,11.50
2022-10-18T18:18:46.516Z,13.07
2022-10-18T18:21:15.083Z,14.80
2022-10-18T18:23:43.303Z,19.63
2022-10-18T18:26:13.309Z,20.63
2022-10-18T18:28:42.229Z,18.53
2022-10-18T18:31:12.422Z,20.40
2022-10-18T18:33:40.617Z,15.23
2022-10-18T18:36:09.240Z,16.70
2022-10-18T18:38:39.688Z,17.17
2022-10-18T18:41:10.541Z,13.90
2022-10-18T18:43:41.962Z,11.60
2022-10-18T18:46:12.600Z,13.90
2022-10-18T18:48:41.806Z,20.70
2022-10-18T18:51:12.492Z,10.37
2022-10-18T18:53:41.707Z,9.20
2022-10-18T18:56:13.951Z,11.27
2022-10-18T18:58:44.908Z,12.70
2022-10-18T19:01:17.197Z,11.00
2022-10-18T19:03:46.389Z,15.00
2022-10-18T19:06:17.735Z,11.20
2022-10-18T19:08:47.395Z,8.63
2022-10-18T19:11:18.058Z,10.27
2022-10-18T19:13:48.773Z,12.23
2022-10-18T19:16:26.586Z,16.33
2022-10-18T19:18:57.280Z,16.47
2022-10-18T19:21:26.976Z,20.53
2022-10-18T19:23:56.143Z,19.23
2022-10-18T19:26:28.484Z,23.40
2022-10-18T19:29:01.600Z,18.33
2022-10-18T19:31:30.053Z,14.87
2022-10-18T19:33:59.733Z,16.60
2022-10-18T19:36:29.522Z,16.27
2022-10-18T19:38:57.771Z,18.80
2022-10-18T19:43:54.327Z,15.33
2022-10-18T19:46:24.212Z,13.30
2022-10-18T19:48:54.083Z,14.63
2022-10-18T19:51:26.863Z,14.27
2022-10-18T19:53:57.645Z,12.83
2022-10-18T19:56:27.943Z,14.03
2022-10-18T19:58:57.428Z,13.93
2022-10-18T20:01:28.937Z,10.40
2022-10-18T20:03:57.413Z,8.93
2022-10-18T20:06:25.553Z,8.50
2022-10-18T20:08:54.117Z,11.23
2022-10-18T20:11:24.305Z,9.47
2022-10-18T20:13:52.599Z,9.23
2022-10-18T20:16:27.957Z,16.07
2022-10-18T20:18:59.756Z,12.23
2022-10-18T20:21:29.761Z,15.03
2022-10-18T20:23:58.627Z,14.07
2022-10-18T20:26:26.906Z,13.97
2022-10-18T20:28:58.103Z,15.37
2022-10-18T20:31:28.380Z,16.57
2022-10-18T20:33:59.775Z,13.70
2022-10-18T20:36:29.369Z,13.20
2022-10-18T20:38:57.790Z,17.00
2022-10-18T20:41:27.924Z,15.87
2022-10-18T20:43:57.512Z,13.07
2022-10-18T20:46:26.793Z,17.23
2022-10-18T20:48:55.376Z,16.00
2022-10-18T20:51:25.083Z,13.57
2022-10-18T20:53:54.276Z,14.53
2022-10-18T20:56:25.209Z,14.87
2022-10-18T20:58:55.643Z,12.10
2022-10-18T21:01:25.439Z,10.80
2022-10-18T21:03:55.400Z,12.90
2022-10-18T21:06:27.804Z,18.83
2022-10-18T21:08:58.119Z,24.13
2022-10-18T21:11:27.824Z,16.00
2022-10-18T21:13:58.940Z,20.00
2022-10-18T21:16:27.360Z,16.80
2022-10-18T21:18:55.864Z,16.17
2022-10-18T21:21:25.662Z,15.77
2022-10-18T21:23:54.621Z,16.93
2022-10-18T21:26:24.535Z,17.50
2022-10-18T21:28:54.210Z,19.13
2022-10-18T21:31:24.365Z,12.20
2022-10-18T21:33:54.813Z,16.30
2022-10-18T21:36:24.168Z,16.10
2022-10-18T21:38:53.997Z,21.83
2022-10-18T21:41:23.425Z,18.77
2022-10-18T21:43:54.128Z,16.90
2022-10-18T21:46:24.192Z,15.23
2022-10-18T21:48:53.807Z,17.73
2022-10-18T21:51:24.089Z,20.70
2022-10-18T21:53:55.083Z,17.63
2022-10-18T21:56:25.009Z,12.23
2022-10-18T21:58:53.452Z,16.20
2022-10-18T22:01:24.716Z,14.27
2022-10-18T22:03:55.260Z,14.63
2022-10-18T22:06:24.597Z,17.73
2022-10-18T22:08:56.389Z,21.70
2022-10-18T22:11:27.048Z,11.53
2022-10-18T22:13:55.235Z,12.27
2022-10-18T22:16:23.614Z,12.73
2022-10-18T22:18:52.540Z,18.27
2022-10-18T22:21:21.661Z,13.67
2022-10-18T22:23:51.573Z,18.30
2022-10-18T22:26:22.983Z,23.73
2022-10-18T22:28:55.572Z,16.30
2022-10-18T22:31:26.131Z,15.00
2022-10-18T22:33:55.500Z,16.17
2022-10-18T22:36:24.738Z,16.83
2022-10-18T22:38:53.377Z,17.17
2022-10-18T22:41:23.178Z,16.60
2022-10-18T22:43:52.040Z,16.70
2022-10-18T22:46:21.030Z,12.70
2022-10-18T22:48:49.503Z,22.70
2022-10-18T22:51:17.980Z,11.97
2022-10-18T22:53:46.896Z,17.93
2022-10-18T22:56:17.948Z,10.37
2022-10-18T22:58:48.030Z,10.27
2022-10-18T23:01:17.899Z,16.40
2022-10-18T23:03:46.424Z,8.60
2022-10-18T23:06:21.303Z,11.50
2022-10-18T23:08:50.021Z,11.90
2022-10-18T23:11:18.869Z,9.70
2022-10-18T23:13:48.495Z,12.57
2022-10-18T23:16:17.917Z,11.73
2022-10-18T23:18:50.656Z,16.27
2022-10-18T23:21:19.473Z,10.40
2022-10-18T23:23:47.971Z,10.43
2022-10-18T23:26:17.862Z,12.57
2022-10-18T23:28:48.985Z,11.43
2022-10-18T23:31:19.323Z,9.33
2022-10-18T23:33:49.397Z,14.00
2022-10-18T23:36:18.181Z,15.07
2022-10-18T23:38:46.777Z,9.07
2022-10-18T23:41:16.392Z,14.93
2022-10-18T23:43:45.691Z,10.83
2022-10-18T23:46:16.408Z,6.10
2022-10-18T23:48:45.259Z,7.90
2022-10-18T23:51:13.836Z,14.73
2022-10-18T23:53:42.431Z,14.43
2022-10-18T23:56:12.293Z,8.77
2022-10-18T23:58:40.502Z,14.03
